Time;durP1;ratioP1;P1;durP2;ratioP2;P2;SDS_P1;SDS_P2;PMS_P1;PMS_P2;Temp;Humidity;BMP_temperature;BMP_pressure;BME280_temperature;BME280_humidity;BME280_pressure;Samples;Min_cycle;Max_cycle;Signal;HPM_P1;HPM_P2
2023/04/24 00:01:26;;;;;;;2.30;1.00;;;17.10;56.50;;;;;;4941375;28;20208;-50
2023/04/24 00:03:52;;;;;;;2.20;1.50;;;16.90;56.70;;;;;;4941161;28;20723;-49
2023/04/24 00:06:17;;;;;;;5.83;0.90;;;17.20;56.70;;;;;;4946847;28;20200;-53
2023/04/24 00:08:43;;;;;;;1.90;1.10;;;17.30;56.30;;;;;;4949211;28;20674;-53
2023/04/24 00:11:09;;;;;;;3.20;1.20;;;17.40;56.10;;;;;;4949483;28;20223;-50
2023/04/24 00:13:35;;;;;;;2.40;1.63;;;17.50;56.30;;;;;;4963626;28;20191;-49
2023/04/24 00:16:01;;;;;;;3.03;1.30;;;17.70;56.30;;;;;;4951404;28;20203;-49
2023/04/24 00:18:26;;;;;;;0.90;0.90;;;17.80;55.80;;;;;;4943318;28;20246;-52
2023/04/24 00:20:52;;;;;;;2.00;1.00;;;17.80;55.20;;;;;;4946702;28;20211;-52
2023/04/24 00:23:17;;;;;;;1.60;1.00;;;17.80;55.40;;;;;;4951640;29;20231;-50
2023/04/24 00:25:43;;;;;;;4.53;0.90;;;17.90;55.20;;;;;;4947994;28;20204;-49
2023/04/24 00:28:08;;;;;;;1.03;0.90;;;17.90;54.90;;;;;;4942905;28;20670;-52
2023/04/24 00:30:34;;;;;;;3.60;1.30;;;17.90;55.70;;;;;;4948007;28;20258;-52
2023/04/24 00:32:59;;;;;;;1.90;0.80;;;17.80;55.00;;;;;;4942339;28;20192;-53
2023/04/24 00:35:25;;;;;;;1.03;0.73;;;17.90;55.30;;;;;;4950339;28;20718;-53
2023/04/24 00:37:51;;;;;;;2.20;1.10;;;17.90;55.20;;;;;;4943508;28;20196;-51
2023/04/24 00:40:16;;;;;;;2.83;0.90;;;17.70;54.60;;;;;;4940615;28;20621;-51
2023/04/24 00:42:43;;;;;;;1.43;0.97;;;17.80;55.00;;;;;;4938880;28;20251;-50
2023/04/24 00:45:09;;;;;;;1.13;0.90;;;17.90;55.30;;;;;;4942328;28;20188;-50
2023/04/24 00:47:35;;;;;;;0.80;0.80;;;17.90;55.20;;;;;;4940056;28;20480;-49
2023/04/24 00:50:05;;;;;;;2.80;1.20;;;17.80;54.90;;;;;;4943921;28;21016;-48
2023/04/24 00:52:32;;;;;;;2.80;0.90;;;17.90;54.90;;;;;;4945181;28;20447;-49
2023/04/24 00:54:58;;;;;;;1.53;1.10;;;17.80;54.70;;;;;;4949763;28;20508;-48
2023/04/24 00:57:24;;;;;;;1.30;1.20;;;17.60;54.70;;;;;;4959894;28;20935;-49
2023/04/24 00:59:51;;;;;;;2.30;1.70;;;17.60;55.20;;;;;;4956368;28;20215;-52
2023/04/24 01:02:17;;;;;;;3.07;1.23;;;17.70;55.00;;;;;;4944779;29;20432;-49
2023/04/24 01:04:43;;;;;;;1.17;0.93;;;17.90;54.90;;;;;;4953488;28;20510;-53
2023/04/24 01:07:11;;;;;;;1.83;1.00;;;17.90;54.90;;;;;;4942939;29;20430;-51
2023/04/24 01:09:39;;;;;;;1.50;1.00;;;17.90;54.90;;;;;;4952393;29;20710;-50
2023/04/24 01:12:06;;;;;;;1.30;1.10;;;17.90;54.80;;;;;;4953595;28;20451;-49
2023/04/24 01:14:32;;;;;;;3.40;1.97;;;18.00;54.90;;;;;;4950218;28;20535;-52
2023/04/24 01:16:58;;;;;;;2.40;1.17;;;17.80;54.20;;;;;;4947682;28;20456;-52
2023/04/24 01:19:23;;;;;;;1.33;1.07;;;17.70;54.60;;;;;;4957608;28;20448;-49
2023/04/24 01:21:53;;;;;;;1.83;1.13;;;17.70;54.90;;;;;;4955473;28;20206;-51
2023/04/24 01:24:19;;;;;;;2.40;1.17;;;17.80;54.70;;;;;;4950626;28;20567;-52
2023/04/24 01:26:45;;;;;;;1.63;1.10;;;17.70;54.50;;;;;;4942293;28;20550;-50
2023/04/24 01:29:12;;;;;;;1.47;1.20;;;17.50;54.70;;;;;;4942568;28;20487;-49
2023/04/24 01:31:39;;;;;;;0.90;0.90;;;17.30;55.40;;;;;;4946956;28;20450;-52
2023/04/24 01:34:05;;;;;;;2.80;1.00;;;17.20;55.60;;;;;;4946994;28;20447;-48
2023/04/24 01:36:32;;;;;;;1.23;1.10;;;17.20;55.70;;;;;;4955892;28;20481;-48
2023/04/24 01:38:58;;;;;;;1.60;1.20;;;17.30;55.80;;;;;;4948019;28;20448;-49
2023/04/24 01:41:25;;;;;;;2.13;1.20;;;17.20;55.40;;;;;;4939335;28;20455;-49
2023/04/24 01:43:50;;;;;;;0.93;0.77;;;17.20;55.30;;;;;;4952152;28;20250;-49
2023/04/24 01:46:16;;;;;;;1.23;1.00;;;17.20;55.60;;;;;;4944624;28;20460;-52
2023/04/24 01:48:42;;;;;;;1.83;0.90;;;17.10;55.70;;;;;;4949349;28;20239;-49
2023/04/24 01:51:08;;;;;;;1.87;1.00;;;17.00;56.10;;;;;;4949479;28;20243;-48
2023/04/24 01:53:33;;;;;;;0.80;0.80;;;16.90;56.30;;;;;;4941982;28;20205;-49
2023/04/24 01:55:59;;;;;;;1.30;1.07;;;16.70;56.20;;;;;;4947887;28;20214;-48
2023/04/24 01:58:26;;;;;;;1.70;1.00;;;16.80;56.80;;;;;;4945588;28;20203;-48
2023/04/24 02:00:51;;;;;;;1.77;1.00;;;16.60;56.90;;;;;;4952782;28;20204;-49
2023/04/24 02:03:17;;;;;;;0.93;0.87;;;16.70;56.80;;;;;;4958780;28;20430;-49
2023/04/24 02:05:45;;;;;;;1.30;0.90;;;16.60;57.10;;;;;;4955125;29;20255;-53
2023/04/24 02:08:11;;;;;;;1.47;1.23;;;16.60;57.40;;;;;;4954052;29;20227;-49
2023/04/24 02:10:37;;;;;;;1.23;0.90;;;16.70;57.30;;;;;;4968627;28;20434;-51
2023/04/24 02:13:02;;;;;;;1.97;1.10;;;16.60;57.20;;;;;;4967636;28;20223;-49
2023/04/24 02:15:28;;;;;;;0.80;0.80;;;16.50;57.60;;;;;;4950517;28;20196;-48
2023/04/24 02:17:53;;;;;;;1.20;0.83;;;16.50;57.60;;;;;;4955359;28;20199;-48
2023/04/24 02:20:19;;;;;;;2.00;1.10;;;16.60;57.30;;;;;;4952841;28;20199;-49
2023/04/24 02:22:44;;;;;;;1.63;0.90;;;16.70;57.10;;;;;;4974294;28;20191;-52
2023/04/24 02:25:10;;;;;;;2.20;0.87;;;16.80;56.80;;;;;;4970687;28;20195;-49
2023/04/24 02:27:36;;;;;;;2.00;0.90;;;16.80;56.80;;;;;;4955433;28;20219;-49
2023/04/24 02:30:02;;;;;;;1.10;1.00;;;16.80;56.60;;;;;;4952411;28;20447;-50
2023/04/24 02:32:28;;;;;;;1.17;1.00;;;16.60;56.90;;;;;;4947217;29;20203;-49
2023/04/24 02:34:53;;;;;;;2.60;1.23;;;16.70;57.00;;;;;;4946656;28;20475;-49
2023/04/24 02:37:19;;;;;;;0.80;0.80;;;16.60;56.60;;;;;;4945440;28;20198;-52
2023/04/24 02:39:45;;;;;;;1.67;0.80;;;16.60;56.80;;;;;;4943105;28;20212;-49
2023/04/24 02:42:10;;;;;;;1.30;0.80;;;16.70;56.50;;;;;;4944091;28;20683;-48
2023/04/24 02:44:36;;;;;;;0.97;0.87;;;16.70;56.60;;;;;;4947067;29;20263;-51
2023/04/24 02:47:01;;;;;;;1.60;0.90;;;16.70;57.50;;;;;;4949663;29;20270;-50
2023/04/24 02:49:27;;;;;;;0.90;0.70;;;16.60;57.10;;;;;;4950631;29;20645;-51
2023/04/24 02:51:52;;;;;;;0.87;0.87;;;16.70;57.00;;;;;;4958453;28;21905;-49
2023/04/24 02:54:18;;;;;;;0.80;0.80;;;16.70;56.90;;;;;;4944877;28;20567;-48
2023/04/24 02:56:43;;;;;;;1.13;0.87;;;16.50;57.20;;;;;;4963439;28;20221;-52
2023/04/24 02:59:10;;;;;;;1.43;0.80;;;16.50;57.90;;;;;;4947376;28;20196;-48
2023/04/24 03:01:35;;;;;;;1.67;1.00;;;16.50;58.40;;;;;;4952105;29;20719;-51
2023/04/24 03:04:01;;;;;;;2.90;1.30;;;16.50;59.20;;;;;;4947959;28;20451;-53
2023/04/24 03:06:27;;;;;;;1.03;0.63;;;16.40;59.90;;;;;;4951057;28;20203;-49
2023/04/24 03:08:53;;;;;;;1.20;1.00;;;16.10;60.60;;;;;;4965596;28;20231;-51
2023/04/24 03:11:19;;;;;;;2.33;0.97;;;16.00;61.60;;;;;;4947625;28;20266;-50
2023/04/24 03:13:44;;;;;;;0.87;0.87;;;16.00;62.30;;;;;;4950371;29;20451;-50
2023/04/24 03:16:10;;;;;;;2.40;0.90;;;16.10;61.90;;;;;;4941910;29;20210;-49
2023/04/24 03:18:35;;;;;;;1.33;0.90;;;16.30;61.40;;;;;;4951081;28;20203;-51
2023/04/24 03:21:01;;;;;;;1.90;1.13;;;16.30;60.80;;;;;;4946463;29;20656;-50
2023/04/24 03:23:26;;;;;;;1.03;1.00;;;16.20;60.90;;;;;;4951663;28;20687;-49
2023/04/24 03:25:52;;;;;;;1.93;0.93;;;16.40;60.60;;;;;;4951406;29;20199;-53
2023/04/24 03:28:18;;;;;;;1.00;0.90;;;16.50;60.20;;;;;;4941909;28;20235;-52
2023/04/24 03:30:43;;;;;;;1.10;1.00;;;16.50;59.90;;;;;;4952790;28;20263;-50
2023/04/24 03:33:09;;;;;;;1.50;0.80;;;16.70;59.80;;;;;;4941648;28;20193;-50
2023/04/24 03:35:36;;;;;;;1.53;0.90;;;16.70;59.50;;;;;;4940768;28;20239;-54
2023/04/24 03:38:01;;;;;;;1.70;1.00;;;16.60;59.40;;;;;;4942586;28;20447;-55
2023/04/24 03:40:29;;;;;;;0.70;0.70;;;16.60;59.40;;;;;;4939912;28;20535;-49
2023/04/24 03:42:54;;;;;;;3.83;0.80;;;16.40;59.30;;;;;;4946913;28;20601;-50
2023/04/24 03:45:20;;;;;;;2.83;0.87;;;16.30;60.00;;;;;;4949425;28;20535;-50
2023/04/24 03:47:46;;;;;;;1.00;0.90;;;16.20;60.40;;;;;;4942544;28;20642;-50
2023/04/24 03:50:11;;;;;;;2.80;1.00;;;16.30;60.70;;;;;;4940249;28;20229;-53
2023/04/24 03:52:37;;;;;;;1.87;0.97;;;16.40;60.20;;;;;;4948502;28;20238;-53
2023/04/24 03:55:02;;;;;;;1.93;0.87;;;16.50;60.10;;;;;;4945146;28;20204;-53
2023/04/24 03:57:28;;;;;;;1.20;0.87;;;16.60;60.00;;;;;;4941366;28;20200;-53
2023/04/24 03:59:54;;;;;;;1.73;0.80;;;16.50;59.90;;;;;;4942956;28;20255;-53
2023/04/24 04:02:19;;;;;;;1.13;0.80;;;16.60;59.80;;;;;;4941056;28;20298;-55
2023/04/24 04:04:45;;;;;;;1.30;0.97;;;16.60;59.70;;;;;;4941293;28;20287;-54
2023/04/24 04:07:11;;;;;;;1.83;0.80;;;16.60;59.30;;;;;;4941213;28;20230;-53
2023/04/24 04:09:36;;;;;;;1.23;1.00;;;16.70;59.60;;;;;;4941630;28;20236;-53
2023/04/24 04:12:02;;;;;;;1.77;1.00;;;16.70;59.40;;;;;;4943018;28;20766;-54
2023/04/24 04:14:28;;;;;;;0.80;0.80;;;16.80;59.20;;;;;;4940446;28;20212;-54
2023/04/24 04:16:54;;;;;;;0.80;0.80;;;16.80;59.10;;;;;;4944798;28;20439;-54
2023/04/24 04:19:19;;;;;;;1.00;0.90;;;16.80;59.10;;;;;;4943859;28;20252;-53
2023/04/24 04:21:45;;;;;;;1.80;0.90;;;16.70;59.10;;;;;;4947406;28;20200;-52
2023/04/24 04:24:11;;;;;;;1.30;1.10;;;16.60;59.20;;;;;;4952341;28;20203;-54
2023/04/24 04:26:37;;;;;;;2.50;1.10;;;16.50;59.80;;;;;;4949220;28;20560;-54
2023/04/24 04:29:03;;;;;;;1.80;1.10;;;16.40;60.00;;;;;;4947740;28;20491;-53
2023/04/24 04:31:30;;;;;;;1.77;1.57;;;16.40;60.20;;;;;;4948353;28;20491;-53
2023/04/24 04:33:55;;;;;;;1.57;1.03;;;16.00;61.20;;;;;;4956182;28;20208;-52
2023/04/24 04:36:21;;;;;;;6.50;0.87;;;16.00;62.00;;;;;;4940378;28;20514;-52
2023/04/24 04:38:47;;;;;;;1.10;1.00;;;15.70;62.20;;;;;;4939392;28;20200;-52
2023/04/24 04:41:12;;;;;;;2.93;1.00;;;15.70;64.30;;;;;;4948038;28;20211;-52
2023/04/24 04:43:40;;;;;;;1.80;1.10;;;15.40;63.40;;;;;;4941074;28;20996;-50
2023/04/24 04:46:07;;;;;;;0.87;0.87;;;14.90;64.70;;;;;;4945731;28;20196;-50
2023/04/24 04:48:33;;;;;;;1.20;1.10;;;14.80;65.20;;;;;;4943364;28;20495;-49
2023/04/24 04:50:59;;;;;;;3.43;1.20;;;14.60;63.60;;;;;;4944637;28;20939;-52
2023/04/24 04:53:25;;;;;;;1.37;1.10;;;14.80;64.30;;;;;;4946327;28;20664;-49
2023/04/24 04:55:51;;;;;;;2.80;1.10;;;15.10;64.80;;;;;;4937157;29;20720;-49
2023/04/24 04:58:17;;;;;;;1.93;1.10;;;15.10;63.80;;;;;;4947453;28;21014;-50
2023/04/24 05:00:44;;;;;;;1.80;1.17;;;15.30;63.80;;;;;;4947050;28;20577;-51
2023/04/24 05:03:09;;;;;;;1.40;1.30;;;15.20;62.10;;;;;;4957737;28;20200;-53
2023/04/24 05:05:35;;;;;;;2.23;1.17;;;15.30;63.10;;;;;;4948614;29;20920;-49
2023/04/24 05:08:00;;;;;;;1.30;1.20;;;15.30;62.90;;;;;;4943375;28;20215;-52
2023/04/24 05:10:26;;;;;;;1.03;1.03;;;15.50;62.20;;;;;;4942432;29;20707;-53
2023/04/24 05:12:52;;;;;;;2.20;1.20;;;15.40;61.00;;;;;;4950585;29;20239;-51
2023/04/24 05:15:17;;;;;;;1.70;1.23;;;15.50;61.00;;;;;;4940747;28;20227;-51
2023/04/24 05:17:43;;;;;;;3.60;1.13;;;15.70;60.60;;;;;;4959103;28;20623;-53
2023/04/24 05:20:09;;;;;;;1.50;1.37;;;15.90;60.20;;;;;;4948228;28;20611;-51
2023/04/24 05:22:35;;;;;;;2.30;1.07;;;15.80;59.30;;;;;;4941956;28;20651;-52
2023/04/24 05:25:02;;;;;;;1.50;1.40;;;15.70;59.70;;;;;;4950830;29;20821;-49
2023/04/24 05:27:27;;;;;;;1.00;1.00;;;15.80;59.50;;;;;;4946814;28;20511;-51
2023/04/24 05:29:53;;;;;;;1.33;1.23;;;15.90;59.40;;;;;;4950807;28;20961;-49
2023/04/24 05:32:19;;;;;;;1.03;1.03;;;15.80;59.00;;;;;;4954016;28;20220;-53
2023/04/24 05:34:44;;;;;;;2.20;1.40;;;15.70;59.00;;;;;;4945898;28;20199;-52
2023/04/24 05:37:10;;;;;;;11.80;11.00;;;15.60;58.80;;;;;;4948060;28;20644;-50
2023/04/24 05:39:36;;;;;;;1.50;1.40;;;15.70;58.90;;;;;;4942370;28;20252;-52
2023/04/24 05:42:03;;;;;;;1.73;1.63;;;15.60;58.70;;;;;;4954246;28;20672;-52
2023/04/24 05:44:28;;;;;;;1.57;1.47;;;15.40;59.30;;;;;;4965989;28;20934;-49
2023/04/24 05:46:55;;;;;;;1.40;1.30;;;15.60;59.60;;;;;;4974861;28;20525;-49
2023/04/24 05:49:21;;;;;;;2.97;1.60;;;15.60;59.60;;;;;;4951464;28;20235;-51
2023/04/24 05:51:47;;;;;;;1.83;1.30;;;15.80;59.40;;;;;;4963690;28;20434;-51
2023/04/24 05:54:12;;;;;;;1.63;1.37;;;15.70;58.90;;;;;;4951197;29;21147;-50
2023/04/24 05:56:39;;;;;;;1.50;1.30;;;15.80;58.90;;;;;;4953432;29;20215;-54
2023/04/24 05:59:05;;;;;;;1.50;1.40;;;16.00;58.90;;;;;;4958798;28;20252;-54
2023/04/24 06:01:31;;;;;;;1.63;1.53;;;16.00;58.50;;;;;;4947231;28;20443;-50
2023/04/24 06:03:57;;;;;;;3.57;1.63;;;15.90;58.50;;;;;;4963855;28;20210;-54
2023/04/24 06:06:24;;;;;;;1.23;1.00;;;15.80;58.90;;;;;;4968200;28;20535;-50
2023/04/24 06:08:49;;;;;;;1.10;1.10;;;15.80;59.10;;;;;;4954482;28;20267;-52
2023/04/24 06:11:15;;;;;;;1.80;1.50;;;15.80;58.70;;;;;;4953097;28;20486;-54
2023/04/24 06:13:41;;;;;;;2.40;1.90;;;15.80;58.60;;;;;;4954431;28;20570;-52
2023/04/24 06:16:06;;;;;;;3.90;2.93;;;16.00;58.60;;;;;;4955244;29;20435;-50
2023/04/24 06:18:32;;;;;;;2.07;1.97;;;16.20;58.20;;;;;;4953198;28;20198;-50
2023/04/24 06:20:58;;;;;;;2.30;2.10;;;16.30;57.40;;;;;;4948400;28;20562;-50
2023/04/24 06:23:23;;;;;;;2.20;1.60;;;16.20;57.20;;;;;;4952809;28;20196;-49
2023/04/24 06:25:49;;;;;;;1.50;1.30;;;16.00;57.40;;;;;;4949052;28;20244;-49
2023/04/24 06:28:15;;;;;;;3.00;1.70;;;16.00;57.50;;;;;;4950201;28;20290;-49
2023/04/24 06:30:41;;;;;;;3.27;1.50;;;16.10;57.50;;;;;;4953193;28;20460;-51
2023/04/24 06:33:06;;;;;;;3.40;2.37;;;16.40;57.40;;;;;;4949357;28;22147;-50
2023/04/24 06:35:32;;;;;;;1.77;1.50;;;16.50;57.10;;;;;;4951808;28;20231;-52
2023/04/24 06:37:57;;;;;;;2.07;1.50;;;16.60;56.50;;;;;;4948087;28;20278;-53
2023/04/24 06:40:23;;;;;;;2.67;1.47;;;16.80;56.80;;;;;;4946871;28;20582;-52
2023/04/24 06:42:48;;;;;;;2.33;1.90;;;16.90;54.70;;;;;;4961892;28;20217;-49
2023/04/24 06:45:14;;;;;;;2.53;1.50;;;16.90;54.90;;;;;;4949371;28;20742;-52
2023/04/24 06:47:40;;;;;;;2.50;1.23;;;17.10;54.60;;;;;;4951381;28;20726;-50
2023/04/24 06:50:06;;;;;;;2.90;1.60;;;17.20;54.20;;;;;;4967418;28;20290;-53
2023/04/24 06:52:32;;;;;;;1.73;1.53;;;17.30;53.70;;;;;;4950638;28;20195;-50
2023/04/24 06:55:05;;;;;;;1.80;1.70;;;17.40;53.20;;;;;;4959819;28;20875;-53
2023/04/24 06:57:31;;;;;;;1.50;1.40;;;17.50;54.10;;;;;;4934678;28;20200;-57
2023/04/24 06:59:56;;;;;;;2.03;1.57;;;17.20;53.40;;;;;;4942766;28;20571;-56
2023/04/24 07:02:22;;;;;;;2.03;1.50;;;17.20;53.80;;;;;;4947026;28;21169;-56
2023/04/24 07:04:48;;;;;;;1.60;1.50;;;17.10;53.20;;;;;;4964842;28;20200;-56
2023/04/24 07:07:14;;;;;;;1.70;1.60;;;16.90;53.00;;;;;;4948470;28;20184;-56
2023/04/24 07:09:42;;;;;;;2.83;1.90;;;16.90;53.70;;;;;;4951357;28;20238;-56
2023/04/24 07:12:08;;;;;;;2.23;1.70;;;16.90;53.20;;;;;;4947316;28;20584;-56
2023/04/24 07:14:34;;;;;;;3.80;1.80;;;16.70;53.00;;;;;;4948956;28;20458;-55
2023/04/24 07:17:01;;;;;;;2.57;2.37;;;16.50;52.20;;;;;;4972864;28;20487;-55
2023/04/24 07:19:26;;;;;;;1.63;1.53;;;16.30;54.50;;;;;;4971182;28;20470;-56
2023/04/24 07:21:53;;;;;;;3.73;1.50;;;16.50;54.30;;;;;;4947270;29;20483;-56
2023/04/24 07:24:19;;;;;;;2.40;1.40;;;16.50;54.40;;;;;;4941571;28;20201;-55
2023/04/24 07:26:46;;;;;;;1.50;1.40;;;16.80;53.70;;;;;;4949518;28;20444;-55
2023/04/24 07:29:13;;;;;;;1.60;1.50;;;16.90;53.40;;;;;;4958142;28;20249;-56
2023/04/24 07:31:38;;;;;;;1.83;1.67;;;17.00;52.60;;;;;;4950381;28;20491;-55
2023/04/24 07:34:04;;;;;;;2.93;1.70;;;17.20;52.30;;;;;;4952014;28;20494;-56
2023/04/24 07:36:29;;;;;;;4.53;1.60;;;17.00;52.20;;;;;;4955810;28;20609;-55
2023/04/24 07:38:56;;;;;;;1.93;1.53;;;16.90;52.90;;;;;;4951398;28;20247;-52
2023/04/24 07:41:23;;;;;;;4.67;2.30;;;16.90;54.10;;;;;;4950480;28;20208;-55
2023/04/24 07:43:49;;;;;;;2.00;1.70;;;16.80;53.40;;;;;;4941494;28;20507;-55
2023/04/24 07:46:15;;;;;;;1.70;1.60;;;16.70;53.70;;;;;;4948669;29;20455;-55
2023/04/24 07:48:41;;;;;;;3.30;1.80;;;16.50;52.70;;;;;;4940595;29;20224;-54
2023/04/24 07:51:06;;;;;;;2.37;1.57;;;16.60;53.30;;;;;;4945828;28;20199;-55
2023/04/24 07:53:32;;;;;;;1.27;1.17;;;16.20;51.70;;;;;;4945055;28;20197;-54
2023/04/24 07:55:57;;;;;;;1.73;1.63;;;15.90;50.90;;;;;;4952503;28;20259;-53
2023/04/24 07:58:23;;;;;;;1.93;1.77;;;15.80;50.90;;;;;;4947087;29;20283;-55
2023/04/24 08:00:49;;;;;;;3.30;1.60;;;15.80;50.40;;;;;;4948067;28;20191;-54
2023/04/24 08:03:18;;;;;;;2.03;1.50;;;15.70;50.40;;;;;;4950100;28;20223;-55
2023/04/24 08:05:43;;;;;;;3.50;1.80;;;15.60;50.00;;;;;;4953294;28;20216;-54
2023/04/24 08:08:09;;;;;;;1.27;1.17;;;15.50;49.30;;;;;;4951415;29;20572;-54
2023/04/24 08:10:34;;;;;;;2.83;1.93;;;15.50;49.90;;;;;;4951415;29;20255;-53
2023/04/24 08:13:00;;;;;;;3.37;1.47;;;15.40;49.50;;;;;;4938688;28;20255;-54
2023/04/24 08:15:27;;;;;;;1.97;1.23;;;15.30;48.80;;;;;;4948979;28;20275;-55
2023/04/24 08:17:53;;;;;;;1.97;1.37;;;15.20;49.00;;;;;;4950871;28;20192;-54
2023/04/24 08:20:18;;;;;;;2.40;1.23;;;15.20;47.70;;;;;;4949730;28;20451;-54
2023/04/24 08:22:46;;;;;;;2.10;1.30;;;15.10;47.80;;;;;;4948322;28;20254;-55
2023/04/24 08:25:12;;;;;;;1.40;1.30;;;15.00;48.00;;;;;;4942221;28;20365;-55
2023/04/24 08:27:38;;;;;;;1.60;1.50;;;15.20;48.00;;;;;;4946948;29;20954;-54
2023/04/24 08:30:05;;;;;;;5.60;1.77;;;15.10;47.30;;;;;;4943855;28;20319;-54
2023/04/24 08:32:30;;;;;;;2.60;1.57;;;15.10;48.10;;;;;;4946208;28;20459;-56
2023/04/24 08:34:57;;;;;;;1.20;1.10;;;15.20;48.30;;;;;;4952365;28;20979;-55
2023/04/24 08:37:23;;;;;;;1.40;1.30;;;15.40;48.00;;;;;;4946852;28;20208;-55
2023/04/24 08:39:52;;;;;;;1.50;1.40;;;15.60;47.50;;;;;;4952037;28;20455;-54
2023/04/24 08:42:18;;;;;;;1.80;1.70;;;15.50;46.80;;;;;;4952733;29;20428;-57
2023/04/24 08:44:44;;;;;;;1.40;1.30;;;15.60;48.60;;;;;;4952392;29;20438;-55
2023/04/24 08:47:11;;;;;;;3.67;1.77;;;16.00;50.40;;;;;;4944508;28;20479;-55
2023/04/24 08:49:38;;;;;;;1.50;1.40;;;16.50;50.40;;;;;;4944255;28;20630;-57
2023/04/24 08:52:05;;;;;;;3.20;2.00;;;16.80;49.60;;;;;;4958813;28;20463;-56
2023/04/24 08:54:31;;;;;;;1.47;1.37;;;16.90;48.20;;;;;;4947045;28;20951;-55
2023/04/24 08:57:01;;;;;;;2.10;1.63;;;17.10;48.30;;;;;;4942469;28;20490;-55
2023/04/24 08:59:28;;;;;;;2.50;1.57;;;17.20;48.20;;;;;;4942387;28;20452;-57
2023/04/24 09:01:55;;;;;;;1.90;1.80;;;17.10;47.30;;;;;;4944553;28;20537;-55
2023/04/24 09:04:24;;;;;;;2.73;1.63;;;16.90;47.00;;;;;;4947144;28;20794;-56
2023/04/24 09:06:50;;;;;;;1.87;1.77;;;16.60;47.20;;;;;;4943021;28;20522;-55
2023/04/24 09:09:18;;;;;;;2.43;1.77;;;16.60;47.60;;;;;;4947428;29;21139;-56
2023/04/24 09:11:44;;;;;;;1.90;1.70;;;16.50;47.10;;;;;;4945679;28;20775;-56
2023/04/24 09:14:10;;;;;;;1.73;1.63;;;16.60;47.70;;;;;;4940204;28;20727;-55
2023/04/24 09:16:36;;;;;;;2.50;1.87;;;16.40;46.80;;;;;;4940480;28;20455;-55
2023/04/24 09:19:03;;;;;;;1.60;1.50;;;16.30;46.50;;;;;;4951774;28;20514;-55
2023/04/24 09:21:33;;;;;;;2.60;1.80;;;16.20;46.90;;;;;;4951598;29;21334;-54
2023/04/24 09:24:05;;;;;;;3.23;1.40;;;16.20;46.80;;;;;;4950482;29;20522;-55
2023/04/24 09:26:32;;;;;;;1.43;1.33;;;16.10;46.40;;;;;;4939541;28;20490;-55
2023/04/24 09:28:58;;;;;;;2.57;1.30;;;16.30;47.40;;;;;;4945245;28;20534;-55
2023/04/24 09:31:27;;;;;;;1.60;1.50;;;16.20;46.90;;;;;;4944677;29;20455;-56
2023/04/24 09:33:57;;;;;;;2.40;1.60;;;15.90;46.90;;;;;;4944396;28;20822;-55
2023/04/24 09:36:32;;;;;;;1.97;1.23;;;15.60;48.00;;;;;;4947841;28;20494;-55
2023/04/24 09:39:05;;;;;;;1.40;1.30;;;15.30;48.70;;;;;;4946366;28;20974;-57
2023/04/24 09:41:32;;;;;;;1.40;1.30;;;15.00;50.20;;;;;;4942854;29;20455;-55
2023/04/24 09:44:34;;;;;;;1.30;1.20;;;15.00;50.80;;;;;;4950107;28;20450;-54
2023/04/24 09:47:00;;;;;;;2.20;1.30;;;14.90;51.00;;;;;;4904510;29;20459;-56
2023/04/24 09:49:37;;;;;;;1.57;1.37;;;14.90;51.90;;;;;;4944467;28;20483;-56
2023/04/24 09:52:07;;;;;;;3.00;1.50;;;15.10;51.70;;;;;;4951561;28;20479;-54
2023/04/24 09:54:33;;;;;;;1.60;1.50;;;15.10;51.40;;;;;;4931724;28;20475;-56
2023/04/24 09:57:00;;;;;;;1.30;1.20;;;15.40;51.60;;;;;;4941595;29;20444;-56
2023/04/24 09:59:26;;;;;;;1.90;1.47;;;15.30;50.80;;;;;;4930180;28;20807;-56
2023/04/24 10:01:52;;;;;;;2.07;1.90;;;15.30;50.80;;;;;;4943101;29;20455;-56
2023/04/24 10:04:18;;;;;;;1.57;1.47;;;15.50;51.00;;;;;;4943260;28;20201;-55
2023/04/24 10:06:44;;;;;;;1.90;1.50;;;15.50;49.70;;;;;;4940154;28;20247;-55
2023/04/24 10:09:11;;;;;;;1.40;1.30;;;15.40;49.50;;;;;;4949982;28;20487;-57
2023/04/24 10:11:38;;;;;;;3.50;1.67;;;15.40;49.00;;;;;;4942374;29;20516;-55
2023/04/24 10:14:04;;;;;;;1.70;1.43;;;15.40;49.20;;;;;;4948786;29;20494;-55
2023/04/24 10:16:31;;;;;;;2.53;1.43;;;15.50;48.00;;;;;;4949979;28;20543;-55
2023/04/24 10:18:59;;;;;;;1.60;1.40;;;15.60;48.00;;;;;;4948747;28;20848;-55
2023/04/24 10:21:26;;;;;;;1.50;1.40;;;15.80;48.40;;;;;;4944499;28;20452;-55
2023/04/24 10:23:53;;;;;;;3.87;1.70;;;15.90;47.00;;;;;;4954918;28;20498;-56
2023/04/24 10:26:20;;;;;;;1.60;1.50;;;16.10;46.30;;;;;;4946022;28;20928;-55
2023/04/24 10:28:47;;;;;;;1.40;1.30;;;16.20;46.00;;;;;;4946673;28;20865;-56
2023/04/24 10:31:13;;;;;;;1.47;1.20;;;16.20;44.80;;;;;;4944219;29;20483;-55
2023/04/24 10:33:42;;;;;;;1.50;1.40;;;16.30;46.00;;;;;;4937758;29;20959;-56
2023/04/24 10:36:10;;;;;;;1.77;1.07;;;16.60;46.10;;;;;;4936908;28;20595;-53
2023/04/24 10:38:38;;;;;;;1.80;1.53;;;16.70;43.30;;;;;;4940089;28;20460;-49
2023/04/24 10:41:09;;;;;;;1.60;1.43;;;16.70;43.40;;;;;;4936316;28;20451;-53
2023/04/24 10:43:35;;;;;;;2.27;1.43;;;17.00;42.80;;;;;;4938261;29;20483;-51
2023/04/24 10:46:03;;;;;;;2.20;1.10;;;17.20;41.50;;;;;;4942385;28;20475;-50
2023/04/24 10:48:29;;;;;;;1.57;1.23;;;17.20;41.10;;;;;;4950127;28;20511;-51
2023/04/24 10:50:55;;;;;;;1.80;1.30;;;17.10;41.90;;;;;;4954399;28;20487;-50
2023/04/24 10:53:26;;;;;;;1.50;1.40;;;17.00;41.30;;;;;;4945149;28;20859;-49
2023/04/24 10:55:57;;;;;;;1.50;1.40;;;16.30;41.10;;;;;;4944479;28;20356;-52
2023/04/24 10:58:24;;;;;;;2.33;2.10;;;15.90;42.70;;;;;;4948164;28;20456;-50
2023/04/24 11:00:57;;;;;;;1.63;1.53;;;15.90;42.40;;;;;;4936240;28;20941;-50
2023/04/24 11:03:24;;;;;;;2.23;1.60;;;15.80;43.10;;;;;;4948495;29;20460;-52
2023/04/24 11:05:58;;;;;;;4.70;1.90;;;16.00;43.50;;;;;;4947585;28;20539;-52
2023/04/24 11:08:27;;;;;;;2.10;1.37;;;16.10;43.70;;;;;;4949916;28;20498;-52
2023/04/24 11:11:03;;;;;;;1.80;1.70;;;16.30;44.20;;;;;;4951091;29;20979;-50
2023/04/24 11:13:54;;;;;;;3.03;1.90;;;16.30;43.50;;;;;;4952603;28;20452;-51
2023/04/24 11:16:28;;;;;;;3.40;1.80;;;16.40;43.50;;;;;;4947220;28;20459;-49
2023/04/24 11:19:08;;;;;;;3.07;1.70;;;16.40;43.60;;;;;;4952060;29;20854;-49
2023/04/24 11:21:46;;;;;;;2.63;1.50;;;16.50;43.90;;;;;;4947616;29;20451;-50
2023/04/24 11:24:47;;;;;;;1.70;1.60;;;16.70;43.50;;;;;;4937603;28;20510;-50
2023/04/24 11:27:14;;;;;;;2.80;1.53;;;16.80;42.30;;;;;;4932561;29;20470;-51
2023/04/24 11:29:59;;;;;;;1.50;1.40;;;16.50;43.20;;;;;;4946861;29;20487;-49
2023/04/24 11:32:40;;;;;;;1.13;1.07;;;16.30;44.00;;;;;;4949957;29;20447;-50
2023/04/24 11:35:14;;;;;;;2.20;2.00;;;16.00;43.80;;;;;;4945790;28;20483;-49
2023/04/24 11:37:48;;;;;;;2.37;1.27;;;15.70;44.20;;;;;;4948417;28;20457;-51
2023/04/24 11:40:15;;;;;;;1.80;1.70;;;15.90;44.60;;;;;;4944420;29;20451;-49
2023/04/24 11:42:46;;;;;;;4.40;1.43;;;15.90;43.90;;;;;;4950068;29;20448;-50
2023/04/24 11:45:12;;;;;;;1.60;1.50;;;15.80;44.20;;;;;;4948389;28;20835;-51
2023/04/24 11:47:38;;;;;;;1.47;1.37;;;16.10;44.40;;;;;;4941601;28;20824;-50
2023/04/24 11:50:07;;;;;;;1.67;1.43;;;16.30;44.10;;;;;;4947809;28;20471;-51
2023/04/24 11:52:36;;;;;;;3.53;1.43;;;16.20;42.40;;;;;;4940011;28;20451;-52
2023/04/24 11:55:03;;;;;;;3.97;1.70;;;16.30;43.20;;;;;;4947942;28;20451;-49
2023/04/24 11:57:33;;;;;;;1.60;1.50;;;16.30;43.20;;;;;;4944867;28;20444;-53
2023/04/24 11:59:59;;;;;;;1.60;1.40;;;16.00;43.30;;;;;;4941772;28;21403;-51
2023/04/24 12:02:27;;;;;;;2.07;1.63;;;16.30;43.50;;;;;;4938260;28;20445;-49
2023/04/24 12:04:53;;;;;;;2.17;1.10;;;16.30;43.80;;;;;;4946045;29;20440;-52
2023/04/24 12:07:19;;;;;;;1.73;1.43;;;16.20;44.60;;;;;;4942248;28;20452;-51
2023/04/24 12:09:59;;;;;;;1.70;1.47;;;15.90;46.00;;;;;;4941117;28;20494;-52
2023/04/24 12:12:27;;;;;;;1.60;1.50;;;15.80;48.40;;;;;;4943537;28;20196;-51
2023/04/24 12:14:55;;;;;;;3.80;1.40;;;15.70;49.50;;;;;;4937720;28;20484;-54
2023/04/24 12:17:29;;;;;;;1.90;1.70;;;15.60;50.50;;;;;;4952240;28;20458;-53
2023/04/24 12:19:58;;;;;;;3.13;1.53;;;15.90;51.70;;;;;;4943984;28;20452;-53
2023/04/24 12:22:24;;;;;;;1.40;1.30;;;15.90;51.40;;;;;;4938179;28;20521;-52
2023/04/24 12:25:03;;;;;;;1.70;1.60;;;15.90;49.30;;;;;;4945912;29;20440;-54
2023/04/24 12:27:32;;;;;;;2.13;1.93;;;15.80;47.90;;;;;;4944251;29;20259;-50
2023/04/24 12:30:04;;;;;;;1.87;1.57;;;15.60;47.80;;;;;;4949060;28;20545;-53
2023/04/24 12:32:30;;;;;;;1.60;1.50;;;15.90;48.60;;;;;;4938093;28;20460;-50
2023/04/24 12:34:56;;;;;;;1.90;1.77;;;16.20;47.20;;;;;;4936718;28;20970;-50
2023/04/24 12:37:26;;;;;;;2.80;1.73;;;16.20;46.70;;;;;;4938221;28;20201;-51
2023/04/24 12:40:00;;;;;;;3.60;1.60;;;16.30;46.40;;;;;;4943826;28;20782;-52
2023/04/24 12:42:27;;;;;;;2.80;1.60;;;16.40;45.80;;;;;;4948507;28;20456;-51
2023/04/24 12:44:58;;;;;;;1.57;1.40;;;16.20;45.80;;;;;;4956417;28;20458;-50
2023/04/24 12:47:24;;;;;;;1.30;1.20;;;16.00;45.40;;;;;;4944176;29;20487;-51